createdAt,value
2019-04-27T00:02:06.248Z,96114.19
2019-04-27T00:04:33.574Z,96104.08
2019-04-27T00:07:00.707Z,96103.08
2019-04-27T00:09:27.747Z,96096.05
2019-04-27T00:11:55.135Z,96093.75
2019-04-27T00:14:23.886Z,96091.48
2019-04-27T00:16:51.194Z,96084.51
2019-04-27T00:19:18.528Z,96086.44
2019-04-27T00:21:45.568Z,96078.12
2019-04-27T00:24:13.558Z,96072.36
2019-04-27T00:26:41.004Z,96079.34
2019-04-27T00:29:08.054Z,96075.06
2019-04-27T00:31:35.096Z,96079.21
2019-04-27T00:34:03.622Z,96076.91
2019-04-27T00:36:31.048Z,96078.02
2019-04-27T00:38:58.172Z,96068.10
2019-04-27T00:41:25.275Z,96071.23
2019-04-27T00:43:53.202Z,96061.98
2019-04-27T00:46:20.636Z,96061.98
2019-04-27T00:48:47.963Z,96061.84
2019-04-27T00:51:14.998Z,96062.03
2019-04-27T00:53:43.561Z,96058.61
2019-04-27T00:56:11.024Z,96055.23
2019-04-27T00:58:38.075Z,96053.45
2019-04-27T01:04:08.074Z,96045.89
2019-04-27T01:06:36.084Z,96043.81
2019-04-27T01:09:03.643Z,96041.58
2019-04-27T01:11:33.295Z,96046.00
2019-04-27T01:14:00.448Z,96039.24
2019-04-27T01:16:29.322Z,96041.06
2019-04-27T01:18:56.630Z,96034.89
2019-04-27T01:21:23.671Z,96040.09
2019-04-27T01:23:50.731Z,96034.38
2019-04-27T01:26:18.606Z,96037.27
2019-04-27T01:28:45.957Z,96038.76
2019-04-27T01:31:13.246Z,96030.33
2019-04-27T01:33:40.658Z,96036.34
2019-04-27T01:36:08.915Z,96033.89
2019-04-27T01:38:36.448Z,96033.56
2019-04-27T01:41:03.484Z,96030.73
2019-04-27T01:43:30.535Z,96032.19
2019-04-27T01:45:58.740Z,96028.73
2019-04-27T01:48:28.246Z,96030.70
2019-04-27T01:50:55.560Z,96033.30
2019-04-27T01:53:22.616Z,96029.73
2019-04-27T01:55:49.650Z,96036.57
2019-04-27T01:58:19.945Z,96035.30
2019-04-27T02:00:45.653Z,96033.67
2019-04-27T02:03:14.566Z,96030.63
2019-04-27T02:05:41.854Z,96038.61
2019-04-27T02:08:09.572Z,96036.34
2019-04-27T02:10:39.407Z,96036.83
2019-04-27T02:13:08.949Z,96032.59
2019-04-27T02:15:36.181Z,96035.49
2019-04-27T02:18:03.218Z,96036.61
2019-04-27T02:20:30.542Z,96033.97
2019-04-27T02:22:58.779Z,96036.05
2019-04-27T02:25:25.912Z,96022.02
2019-04-27T02:27:52.950Z,96021.80
2019-04-27T02:30:20.646Z,96020.71
2019-04-27T02:32:49.837Z,96015.29
2019-04-27T02:35:16.665Z,96015.28
2019-04-27T02:37:43.707Z,96015.20
2019-04-27T02:40:11.127Z,96013.48
2019-04-27T02:42:39.302Z,96012.91
2019-04-27T02:45:09.519Z,96014.54
2019-04-27T02:47:35.907Z,96014.02
2019-04-27T02:50:02.972Z,96022.58
2019-04-27T02:52:30.305Z,96020.86
2019-04-27T02:54:59.345Z,96020.28
2019-04-27T02:57:29.736Z,96023.03
2019-04-27T02:59:56.359Z,96021.58
2019-04-27T03:02:23.390Z,96023.83
2019-04-27T03:04:50.842Z,96017.16
2019-04-27T03:07:19.920Z,96021.52
2019-04-27T03:09:46.605Z,96024.41
2019-04-27T03:12:13.647Z,96023.58
2019-04-27T03:14:41.065Z,96027.62
2019-04-27T03:17:09.916Z,96023.05
2019-04-27T03:19:39.516Z,96023.39
2019-04-27T03:22:09.400Z,96013.78
2019-04-27T03:24:35.666Z,96020.41
2019-04-27T03:27:02.957Z,96018.05
2019-04-27T03:29:30.673Z,96016.81
2019-04-27T03:32:01.563Z,96015.17
2019-04-27T03:34:26.471Z,96015.94
2019-04-27T03:36:53.517Z,96017.00
2019-04-27T03:39:20.798Z,96015.79
2019-04-27T03:41:52.331Z,96013.48
2019-04-27T03:44:16.577Z,96016.50
2019-04-27T03:46:43.636Z,96009.48
2019-04-27T03:49:20.301Z,96002.91
2019-04-27T03:51:40.805Z,96008.72
2019-04-27T03:54:10.394Z,95999.87
2019-04-27T03:56:39.369Z,95991.75
2019-04-27T03:59:05.946Z,95998.96
2019-04-27T04:01:32.992Z,96002.08
2019-04-27T04:04:00.354Z,95997.11
2019-04-27T04:06:29.544Z,96005.83
2019-04-27T04:08:56.496Z,95993.82
2019-04-27T04:11:23.845Z,95999.03
2019-04-27T04:13:51.124Z,95998.70
2019-04-27T04:16:20.271Z,95999.84
2019-04-27T04:18:46.919Z,95999.51
2019-04-27T04:21:14.292Z,96004.67
2019-04-27T04:23:41.648Z,96002.84
2019-04-27T04:26:09.848Z,96003.88
2019-04-27T04:28:36.913Z,96004.70
2019-04-27T04:31:03.968Z,96007.07
2019-04-27T04:33:31.006Z,96007.83
2019-04-27T04:35:59.727Z,96009.28
2019-04-27T04:38:27.056Z,96006.30
2019-04-27T04:40:54.090Z,96006.31
2019-04-27T04:43:21.137Z,96002.23
2019-04-27T04:45:50.048Z,96010.62
2019-04-27T04:48:19.853Z,96011.11
2019-04-27T04:50:46.367Z,96002.50
2019-04-27T04:53:13.419Z,96003.98
2019-04-27T04:55:40.710Z,95997.73
2019-04-27T04:58:09.385Z,96006.75
2019-04-27T05:00:36.620Z,96003.50
2019-04-27T05:03:03.682Z,96008.33
2019-04-27T05:05:30.719Z,96008.98
2019-04-27T05:08:00.374Z,96014.79
2019-04-27T05:10:26.779Z,96003.81
2019-04-27T05:12:54.177Z,96011.34
2019-04-27T05:15:21.530Z,96011.40
2019-04-27T05:17:50.803Z,96009.96
2019-04-27T05:20:24.643Z,96016.97
2019-04-27T05:22:46.431Z,96018.20
2019-04-27T05:25:13.818Z,96012.83
2019-04-27T05:27:40.874Z,96015.13
2019-04-27T05:30:09.306Z,96015.71
2019-04-27T05:32:36.462Z,96019.49
2019-04-27T05:35:03.507Z,96017.80
2019-04-27T05:37:31.782Z,96013.88
2019-04-27T05:39:59.282Z,96012.75
2019-04-27T05:42:26.343Z,96017.61
2019-04-27T05:44:53.682Z,96023.83
2019-04-27T05:47:21.042Z,96022.28
2019-04-27T05:49:48.600Z,96025.58
2019-04-27T05:52:15.626Z,96026.10
2019-04-27T05:54:42.669Z,96027.61
2019-04-27T05:57:09.726Z,96019.48
2019-04-27T05:59:37.103Z,96016.41
2019-04-27T06:02:04.157Z,96020.45
2019-04-27T06:04:32.266Z,96010.56
2019-04-27T06:07:01.043Z,96009.48
2019-04-27T06:09:28.953Z,96012.00
2019-04-27T06:11:56.450Z,96011.09
2019-04-27T06:14:23.506Z,96006.59
2019-04-27T06:16:51.617Z,96010.30
2019-04-27T06:19:19.443Z,96002.55
2019-04-27T06:21:46.527Z,96003.36
2019-04-27T06:24:13.931Z,96007.13
2019-04-27T06:26:41.218Z,96008.09
2019-04-27T06:29:09.527Z,96007.83
2019-04-27T06:31:36.697Z,96003.05
2019-04-27T06:34:04.063Z,95991.95
2019-04-27T06:36:31.121Z,95996.77
2019-04-27T06:38:58.927Z,95993.56
2019-04-27T06:41:26.080Z,96002.62
2019-04-27T06:43:53.134Z,95995.69
2019-04-27T06:46:20.535Z,95997.44
2019-04-27T06:48:49.476Z,95998.09
2019-04-27T06:51:16.707Z,96000.68
2019-04-27T06:53:43.772Z,95999.20
2019-04-27T06:56:10.805Z,95996.32
2019-04-27T06:58:40.489Z,95998.28
2019-04-27T07:01:06.598Z,95993.25
2019-04-27T07:03:33.655Z,95995.73
2019-04-27T07:06:00.700Z,95992.94
2019-04-27T07:08:30.523Z,95994.66
2019-04-27T07:10:56.511Z,95990.04
2019-04-27T07:13:23.551Z,95993.81
2019-04-27T07:15:50.941Z,95995.96
2019-04-27T07:18:18.643Z,95999.47
2019-04-27T07:20:45.719Z,95999.90
2019-04-27T07:23:12.776Z,96009.11
2019-04-27T07:25:39.817Z,96004.72
2019-04-27T07:28:06.940Z,96001.16
2019-04-27T07:30:33.976Z,96003.94
2019-04-27T07:33:01.307Z,95994.20
2019-04-27T07:35:29.606Z,96008.63
2019-04-27T07:37:56.761Z,96005.39
2019-04-27T07:40:24.107Z,96007.03
2019-04-27T07:42:51.467Z,96008.73
2019-04-27T07:45:19.639Z,96011.77
2019-04-27T07:47:46.610Z,96006.87
2019-04-27T07:50:13.674Z,96004.73
2019-04-27T07:52:40.707Z,96003.91
2019-04-27T07:55:08.700Z,96001.17
2019-04-27T07:57:35.829Z,95998.95
2019-04-27T08:00:03.233Z,95997.51
2019-04-27T08:02:31.713Z,95994.14
2019-04-27T08:04:59.612Z,95989.83
2019-04-27T08:07:26.697Z,95981.42
2019-04-27T08:09:53.748Z,95982.77
2019-04-27T08:12:21.092Z,95990.77
2019-04-27T08:14:49.062Z,95979.36
2019-04-27T08:17:16.306Z,95977.69
2019-04-27T08:19:43.362Z,95973.94
2019-04-27T08:22:10.406Z,95988.27
2019-04-27T08:24:39.406Z,95988.73
2019-04-27T08:27:06.441Z,95983.00
2019-04-27T08:29:33.568Z,95984.24
2019-04-27T08:32:00.613Z,95978.31
2019-04-27T08:34:29.490Z,95977.44
2019-04-27T08:36:56.581Z,95975.11
2019-04-27T08:39:23.639Z,95972.27
2019-04-27T08:41:50.679Z,95970.09
2019-04-27T08:44:19.405Z,95967.16
2019-04-27T08:46:46.567Z,95968.83
2019-04-27T08:49:13.614Z,95961.58
2019-04-27T08:51:41.618Z,95964.48
2019-04-27T08:54:09.218Z,95967.34
2019-04-27T08:56:36.274Z,95966.47
2019-04-27T08:59:03.317Z,95961.55
2019-04-27T09:01:30.364Z,95962.38
2019-04-27T09:03:59.087Z,95949.30
2019-04-27T09:06:26.302Z,95949.65
2019-04-27T09:08:53.682Z,95949.40
2019-04-27T09:11:20.784Z,95952.07
2019-04-27T09:13:48.774Z,95948.63
2019-04-27T09:16:15.824Z,95933.64
2019-04-27T09:18:43.235Z,95945.87
2019-04-27T09:21:10.738Z,95933.70
2019-04-27T09:23:38.901Z,95929.98
2019-04-27T09:26:06.397Z,95929.97
2019-04-27T09:28:33.508Z,95927.70
2019-04-27T09:31:00.560Z,95919.22
2019-04-27T09:33:27.604Z,95923.83
2019-04-27T09:35:56.587Z,95917.59
2019-04-27T09:38:23.824Z,95929.18
2019-04-27T09:40:51.145Z,95924.91
2019-04-27T09:43:18.187Z,95914.76
2019-04-27T09:45:47.171Z,95920.50
2019-04-27T09:48:15.928Z,95911.14
2019-04-27T09:50:43.120Z,95915.94
2019-04-27T09:53:10.233Z,95912.70
2019-04-27T09:55:37.286Z,95914.45
2019-04-27T09:58:05.752Z,95922.39
2019-04-27T10:00:32.958Z,95929.52
2019-04-27T10:03:00.414Z,95945.48
2019-04-27T10:05:27.483Z,95941.63
2019-04-27T10:07:54.523Z,95940.98
2019-04-27T10:10:21.862Z,95939.08
2019-04-27T10:12:48.910Z,95932.16
2019-04-27T10:15:16.354Z,95928.31
2019-04-27T10:17:43.383Z,95928.31
2019-04-27T10:20:10.423Z,95926.74
2019-04-27T10:22:41.227Z,95924.69
2019-04-27T10:25:06.554Z,95915.42
2019-04-27T10:27:33.610Z,95918.75
2019-04-27T10:30:00.653Z,95922.36
2019-04-27T10:32:28.160Z,95921.57
2019-04-27T10:34:57.386Z,95919.63
2019-04-27T10:37:24.443Z,95922.86
2019-04-27T10:39:51.480Z,95924.23
2019-04-27T10:42:18.534Z,95919.44
2019-04-27T10:44:46.302Z,95913.19
2019-04-27T10:47:13.386Z,95916.25
2019-04-27T10:49:40.431Z,95914.58
2019-04-27T10:52:07.725Z,95912.92
2019-04-27T10:54:35.075Z,95915.98
2019-04-27T10:57:02.133Z,95915.84
2019-04-27T10:59:29.181Z,95898.56
2019-04-27T11:01:56.238Z,95907.16
2019-04-27T11:04:23.280Z,95900.67
2019-04-27T11:06:50.411Z,95899.52
2019-04-27T11:09:18.534Z,95895.19
2019-04-27T11:11:46.351Z,95890.48
2019-04-27T11:14:13.532Z,95885.82
2019-04-27T11:16:40.586Z,95874.67
2019-04-27T11:19:07.622Z,95866.26
2019-04-27T11:21:34.678Z,95870.95
2019-04-27T11:24:01.721Z,95859.88
2019-04-27T11:26:28.769Z,95870.69
2019-04-27T11:28:56.103Z,95874.13
2019-04-27T11:31:23.137Z,95872.14
2019-04-27T11:33:50.199Z,95863.45
2019-04-27T11:36:17.258Z,95881.22
2019-04-27T11:38:46.505Z,95881.52
2019-04-27T11:41:13.901Z,95877.70
2019-04-27T11:43:41.253Z,95881.70
2019-04-27T11:46:08.301Z,95882.73
2019-04-27T11:48:36.174Z,95885.98
2019-04-27T11:51:03.177Z,95884.00
2019-04-27T11:53:30.229Z,95876.53
2019-04-27T11:55:57.266Z,95880.52
2019-04-27T11:58:24.324Z,95877.87
2019-04-27T12:00:51.722Z,95884.05
2019-04-27T12:03:18.779Z,95873.77
2019-04-27T12:05:46.897Z,95875.87
2019-04-27T12:08:13.952Z,95879.12
2019-04-27T12:10:40.991Z,95879.37
2019-04-27T12:13:08.049Z,95876.52
2019-04-27T12:15:36.237Z,95882.98
2019-04-27T12:18:03.394Z,95880.52
2019-04-27T12:20:30.485Z,95872.50
2019-04-27T12:22:57.544Z,95880.89
2019-04-27T12:25:24.584Z,95871.33
2019-04-27T12:27:52.608Z,95871.13
2019-04-27T12:30:19.654Z,95876.72
2019-04-27T12:32:46.711Z,95869.89
2019-04-27T12:35:13.993Z,95872.17
2019-04-27T12:37:41.065Z,95865.59
2019-04-27T12:40:08.098Z,95868.86
2019-04-27T12:42:36.426Z,95860.55
2019-04-27T12:45:03.577Z,95858.33
2019-04-27T12:47:30.955Z,95871.09
2019-04-27T12:49:58.006Z,95868.62
2019-04-27T12:52:25.957Z,95866.78
2019-04-27T12:54:52.981Z,95871.98
2019-04-27T12:57:20.959Z,95869.44
2019-04-27T12:59:48.445Z,95869.62
2019-04-27T13:02:15.485Z,95866.62
2019-04-27T13:04:42.543Z,95862.06
2019-04-27T13:07:09.586Z,95856.39
2019-04-27T13:09:36.643Z,95853.72
2019-04-27T13:12:03.997Z,95839.91
2019-04-27T13:14:31.055Z,95829.77
2019-04-27T13:16:58.265Z,95828.56
2019-04-27T13:19:25.873Z,95822.63
2019-04-27T13:21:53.039Z,95817.86
2019-04-27T13:24:20.094Z,95812.84
2019-04-27T13:26:47.405Z,95809.67
2019-04-27T13:29:14.458Z,95801.30
2019-04-27T13:31:41.760Z,95800.54
2019-04-27T13:34:08.893Z,95790.49
2019-04-27T13:36:36.797Z,95797.27
2019-04-27T13:39:03.962Z,95787.66
2019-04-27T13:41:32.969Z,95782.83
2019-04-27T13:44:00.451Z,95781.32
2019-04-27T13:46:27.781Z,95772.33
2019-04-27T13:48:56.276Z,95772.12
2019-04-27T13:51:25.540Z,95770.23
2019-04-27T13:53:52.471Z,95765.88
2019-04-27T13:56:19.516Z,95761.81
2019-04-27T13:58:46.915Z,95758.36
2019-04-27T14:01:13.951Z,95755.02
2019-04-27T14:03:41.012Z,95754.63
2019-04-27T14:06:08.158Z,95749.92
2019-04-27T14:08:35.161Z,95743.84
2019-04-27T14:11:02.218Z,95746.19
2019-04-27T14:13:29.260Z,95743.16
2019-04-27T14:15:56.658Z,95737.28
2019-04-27T14:18:23.965Z,95729.53
2019-04-27T14:20:52.091Z,95739.61
2019-04-27T14:23:19.133Z,95728.64
2019-04-27T14:25:46.187Z,95735.70
2019-04-27T14:28:13.537Z,95728.72
2019-04-27T14:30:40.599Z,95736.95
2019-04-27T14:33:08.469Z,95731.77
2019-04-27T14:35:35.570Z,95732.86
2019-04-27T14:38:02.611Z,95727.74
2019-04-27T14:40:29.673Z,95734.13
2019-04-27T14:42:56.711Z,95722.86
2019-04-27T14:45:23.822Z,95723.88
2019-04-27T14:47:50.887Z,95720.80
2019-04-27T14:50:18.794Z,95724.31
2019-04-27T14:52:45.966Z,95713.91
2019-04-27T14:55:13.322Z,95704.97
2019-04-27T14:57:40.366Z,95706.52
2019-04-27T15:00:07.423Z,95702.13
2019-04-27T15:02:35.497Z,95706.45
2019-04-27T15:05:02.565Z,95713.93
2019-04-27T15:07:29.889Z,95724.67
2019-04-27T15:09:57.607Z,95783.12
2019-04-27T15:12:30.610Z,95796.88
2019-04-27T15:14:57.304Z,95823.92
2019-04-27T15:17:25.570Z,95830.02
2019-04-27T15:19:52.756Z,95834.67
2019-04-27T15:22:22.668Z,95847.78
2019-04-27T15:25:07.711Z,95851.14
2019-04-27T15:27:17.379Z,95858.89
2019-04-27T15:29:44.412Z,95847.19
2019-04-27T15:32:12.407Z,95859.70
2019-04-27T15:34:40.079Z,95860.23
2019-04-27T15:37:08.494Z,95860.98
2019-04-27T15:39:35.848Z,95859.91
2019-04-27T15:42:07.982Z,95863.81
2019-04-27T15:44:31.991Z,95865.01
2019-04-27T15:46:59.345Z,95853.81
2019-04-27T15:49:26.386Z,95854.73
2019-04-27T15:51:54.727Z,95878.83
2019-04-27T15:54:26.399Z,95869.94
2019-04-27T15:56:51.484Z,95869.28
2019-04-27T15:59:18.785Z,95866.92
2019-04-27T16:01:46.145Z,95874.06
2019-04-27T16:04:13.183Z,95874.74
2019-04-27T16:06:42.880Z,95871.55
2019-04-27T16:09:10.024Z,95875.77
2019-04-27T16:11:37.166Z,95875.78
2019-04-27T16:14:06.707Z,95870.43
2019-04-27T16:16:33.591Z,95884.94
2019-04-27T16:19:03.534Z,95867.38
2019-04-27T16:21:31.508Z,95862.67
2019-04-27T16:23:58.234Z,95874.86
2019-04-27T16:26:25.545Z,95867.38
2019-04-27T16:28:53.606Z,95877.81
2019-04-27T16:31:24.942Z,95878.79
2019-04-27T16:33:54.132Z,95856.63
2019-04-27T16:36:19.741Z,95862.48
2019-04-27T16:38:48.242Z,95864.59
2019-04-27T16:41:15.288Z,95862.64
2019-04-27T16:43:42.340Z,95869.28
2019-04-27T16:46:09.371Z,95867.81
2019-04-27T16:48:36.420Z,95867.98
2019-04-27T16:51:03.468Z,95864.56
2019-04-27T16:53:39.535Z,95867.02
2019-04-27T16:56:02.009Z,95864.25
2019-04-27T16:58:31.853Z,95866.33
2019-04-27T17:01:00.134Z,95857.98
2019-04-27T17:03:26.982Z,95855.72
2019-04-27T17:05:54.016Z,95862.70
2019-04-27T17:08:26.094Z,95859.74
2019-04-27T17:10:50.204Z,95864.42
2019-04-27T17:13:18.616Z,95863.39
2019-04-27T17:15:52.838Z,95866.95
2019-04-27T17:18:14.691Z,95874.71
2019-04-27T17:20:42.005Z,95885.67
2019-04-27T17:23:09.145Z,95891.30
2019-04-27T17:25:39.688Z,95899.16
2019-04-27T17:28:05.235Z,95897.12
2019-04-27T17:30:37.865Z,95902.77
2019-04-27T17:33:05.900Z,95903.59
2019-04-27T17:35:30.387Z,95904.48
2019-04-27T17:37:59.438Z,95911.12
2019-04-27T17:40:29.933Z,95919.81
2019-04-27T17:43:03.329Z,95925.22
2019-04-27T17:45:24.757Z,95925.40
2019-04-27T17:47:52.052Z,95923.19
2019-04-27T17:50:25.064Z,95932.95
2019-04-27T17:52:54.617Z,95935.98
2019-04-27T17:55:23.002Z,95945.30
2019-04-27T17:57:45.353Z,95955.44
2019-04-27T18:00:12.377Z,95954.77
2019-04-27T18:02:42.386Z,95965.00
2019-04-27T18:05:09.504Z,95980.41
2019-04-27T18:07:42.640Z,95976.77
2019-04-27T18:10:08.734Z,95995.22
2019-04-27T18:12:36.210Z,96009.06
2019-04-27T18:15:03.271Z,96001.86
2019-04-27T18:17:31.327Z,96000.50
2019-04-27T18:19:59.625Z,95993.67
2019-04-27T18:22:28.189Z,95993.68
2019-04-27T18:24:55.705Z,96005.94
2019-04-27T18:27:24.754Z,95994.63
2019-04-27T18:29:51.808Z,95988.71
2019-04-27T18:32:19.142Z,96000.05
2019-04-27T18:34:49.376Z,95999.37
2019-04-27T18:37:20.999Z,95995.56
2019-04-27T18:39:45.470Z,95992.30
2019-04-27T18:42:12.414Z,95986.30
2019-04-27T18:44:39.465Z,96006.06
2019-04-27T18:47:08.448Z,96005.45
2019-04-27T18:49:35.954Z,96015.41
2019-04-27T18:52:04.407Z,96012.47
2019-04-27T18:54:33.082Z,96010.90
2019-04-27T18:57:02.660Z,96001.21
2019-04-27T18:59:29.779Z,96001.48
2019-04-27T19:01:58.026Z,96011.86
2019-04-27T19:04:25.153Z,96020.45
2019-04-27T19:06:52.190Z,96031.02
2019-04-27T19:09:19.248Z,96035.04
2019-04-27T19:11:54.187Z,96038.59
2019-04-27T19:14:15.105Z,96042.81
2019-04-27T19:16:42.143Z,96049.43
2019-04-27T19:19:09.213Z,96062.25
2019-04-27T19:21:36.247Z,96058.70
2019-04-27T19:24:03.282Z,96068.94
2019-04-27T19:26:30.625Z,96069.00
2019-04-27T19:28:58.441Z,96075.55
2019-04-27T19:31:25.579Z,96075.47
2019-04-27T19:33:52.617Z,96080.31
2019-04-27T19:36:19.669Z,96086.05
2019-04-27T19:44:04.646Z,96107.67
2019-04-27T19:46:33.863Z,96124.11
2019-04-27T19:49:04.117Z,96138.38
2019-04-27T19:51:36.782Z,96150.78
2019-04-27T19:54:04.112Z,96157.54
2019-04-27T19:56:32.309Z,96156.99
2019-04-27T19:59:00.592Z,96169.27
2019-04-27T20:01:28.131Z,96183.98
2019-04-27T20:03:59.787Z,96196.45
2019-04-27T20:06:32.088Z,96215.09
2019-04-27T20:09:08.578Z,96211.68
2019-04-27T20:11:37.064Z,96203.13
2019-04-27T20:14:04.420Z,96188.49
2019-04-27T20:16:32.679Z,96187.27
2019-04-27T20:19:01.533Z,96171.30
2019-04-27T20:21:30.813Z,96167.42
2019-04-27T20:23:58.066Z,96165.15
2019-04-27T20:26:27.117Z,96164.26
2019-04-27T20:28:58.440Z,96167.54
2019-04-27T20:31:25.685Z,96152.58
2019-04-27T20:33:59.867Z,96147.84
2019-04-27T20:36:27.053Z,96148.88
2019-04-27T20:39:01.173Z,96148.48
2019-04-27T20:44:03.321Z,96157.41
2019-04-27T20:46:31.298Z,96156.11
2019-04-27T20:49:04.393Z,96160.34
2019-04-27T20:51:33.982Z,96163.02
2019-04-27T20:54:05.346Z,96167.72
2019-04-27T20:56:33.595Z,96162.06
2019-04-27T20:59:01.701Z,96169.14
2019-04-27T21:01:33.984Z,96172.20
2019-04-27T21:04:01.309Z,96176.09
2019-04-27T21:06:28.749Z,96181.13
2019-04-27T21:08:55.928Z,96174.27
2019-04-27T21:11:24.120Z,96179.98
2019-04-27T21:13:58.617Z,96176.25
2019-04-27T21:18:58.424Z,96174.87
2019-04-27T21:21:30.128Z,96176.99
2019-04-27T21:23:59.321Z,96188.78
2019-04-27T21:26:27.506Z,96185.45
2019-04-27T21:28:58.597Z,96192.61
2019-04-27T21:34:20.393Z,96198.14
2019-04-27T21:42:00.906Z,96200.38
2019-04-27T21:44:28.399Z,96213.32
2019-04-27T21:52:22.057Z,96209.97
2019-04-27T21:55:01.445Z,96217.47
2019-04-27T21:57:28.711Z,96221.36
2019-04-27T21:59:56.901Z,96218.30
2019-04-27T22:02:27.399Z,96220.20
2019-04-27T22:04:59.808Z,96222.78
2019-04-27T22:07:31.724Z,96222.31
2019-04-27T22:10:01.999Z,96221.96
2019-04-27T22:12:31.240Z,96227.70
2019-04-27T22:15:01.041Z,96227.14
2019-04-27T22:22:49.407Z,96224.34
2019-04-27T22:25:18.653Z,96224.20
2019-04-27T22:30:21.811Z,96224.20
2019-04-27T22:32:49.062Z,96235.73
2019-04-27T22:35:16.307Z,96234.44
2019-04-27T22:37:43.829Z,96240.69
2019-04-27T22:40:12.134Z,96237.76
2019-04-27T22:42:41.545Z,96241.30
2019-04-27T22:45:08.981Z,96242.75
2019-04-27T22:47:38.213Z,96243.95
2019-04-27T22:50:10.700Z,96244.34
2019-04-27T22:52:38.812Z,96241.45
2019-04-27T22:55:05.998Z,96245.23
2019-04-27T22:57:34.316Z,96248.94
2019-04-27T23:00:03.731Z,96246.29
2019-04-27T23:02:32.445Z,96245.84
2019-04-27T23:04:59.495Z,96237.64
2019-04-27T23:07:26.530Z,96238.88
2019-04-27T23:09:53.577Z,96240.17
2019-04-27T23:12:21.342Z,96238.13
2019-04-27T23:14:49.601Z,96235.50
2019-04-27T23:17:16.635Z,96234.20
2019-04-27T23:19:43.683Z,96234.20
2019-04-27T23:22:11.147Z,96236.54
2019-04-27T23:24:38.437Z,96231.71
2019-04-27T23:27:05.475Z,96229.22
2019-04-27T23:29:33.182Z,96222.40
2019-04-27T23:32:01.661Z,96231.33
2019-04-27T23:34:28.742Z,96225.55
2019-04-27T23:36:56.036Z,96230.00
2019-04-27T23:39:23.090Z,96229.53
2019-04-27T23:41:50.129Z,96235.52
2019-04-27T23:44:17.177Z,96234.70
2019-04-27T23:46:44.242Z,96230.48
2019-04-27T23:49:12.173Z,96230.48
2019-04-27T23:51:39.177Z,96224.26
2019-04-27T23:54:06.218Z,96223.60
2019-04-27T23:56:33.510Z,96229.98
2019-04-27T23:59:00.800Z,96221.27
